sensor_id;sensor_type;location;lat;lon;timestamp;P1;durP1;ratioP1;P2;durP2;ratioP2
37647;SDS011;23490;53.656;10.076;2022-10-16T00:01:12;10.10;;;4.93;;
37647;SDS011;23490;53.656;10.076;2022-10-16T00:03:39;12.77;;;5.82;;
37647;SDS011;23490;53.656;10.076;2022-10-16T00:06:06;11.32;;;4.43;;
37647;SDS011;23490;53.656;10.076;2022-10-16T00:08:32;7.80;;;4.80;;
37647;SDS011;23490;53.656;10.076;2022-10-16T00:10:59;7.18;;;4.53;;
37647;SDS011;23490;53.656;10.076;2022-10-16T00:13:30;8.75;;;4.22;;
37647;SDS011;23490;53.656;10.076;2022-10-16T00:15:56;6.72;;;3.95;;
37647;SDS011;23490;53.656;10.076;2022-10-16T00:18:23;7.55;;;3.78;;
37647;SDS011;23490;53.656;10.076;2022-10-16T00:20:49;9.25;;;3.88;;
37647;SDS011;23490;53.656;10.076;2022-10-16T00:23:14;6.20;;;3.45;;
37647;SDS011;23490;53.656;10.076;2022-10-16T00:25:39;6.95;;;3.78;;
37647;SDS011;23490;53.656;10.076;2022-10-16T00:28:04;6.30;;;3.72;;
37647;SDS011;23490;53.656;10.076;2022-10-16T00:30:30;7.28;;;3.28;;
37647;SDS011;23490;53.656;10.076;2022-10-16T00:32:55;7.25;;;3.42;;
37647;SDS011;23490;53.656;10.076;2022-10-16T00:35:21;6.75;;;3.33;;
37647;SDS011;23490;53.656;10.076;2022-10-16T00:37:47;6.47;;;2.97;;
37647;SDS011;23490;53.656;10.076;2022-10-16T00:40:12;7.72;;;3.80;;
37647;SDS011;23490;53.656;10.076;2022-10-16T00:42:38;7.22;;;2.80;;
37647;SDS011;23490;53.656;10.076;2022-10-16T00:45:03;5.47;;;2.70;;
37647;SDS011;23490;53.656;10.076;2022-10-16T00:47:33;6.85;;;2.72;;
37647;SDS011;23490;53.656;10.076;2022-10-16T00:50:09;8.05;;;2.30;;
37647;SDS011;23490;53.656;10.076;2022-10-16T00:52:42;5.03;;;2.53;;
37647;SDS011;23490;53.656;10.076;2022-10-16T00:55:12;3.88;;;2.33;;
37647;SDS011;23490;53.656;10.076;2022-10-16T00:57:38;4.13;;;1.83;;
37647;SDS011;23490;53.656;10.076;2022-10-16T01:00:05;6.65;;;2.30;;
37647;SDS011;23490;53.656;10.076;2022-10-16T01:02:32;6.00;;;2.13;;
37647;SDS011;23490;53.656;10.076;2022-10-16T01:04:58;4.72;;;1.80;;
37647;SDS011;23490;53.656;10.076;2022-10-16T01:07:30;6.22;;;1.67;;
37647;SDS011;23490;53.656;10.076;2022-10-16T01:10:07;5.60;;;2.03;;
37647;SDS011;23490;53.656;10.076;2022-10-16T01:15:29;4.53;;;1.77;;
37647;SDS011;23490;53.656;10.076;2022-10-16T01:21:02;3.05;;;1.42;;
37647;SDS011;23490;53.656;10.076;2022-10-16T01:23:35;4.22;;;1.77;;
37647;SDS011;23490;53.656;10.076;2022-10-16T01:29:05;5.35;;;1.90;;
37647;SDS011;23490;53.656;10.076;2022-10-16T01:31:39;7.28;;;1.83;;
37647;SDS011;23490;53.656;10.076;2022-10-16T01:34:13;4.80;;;2.03;;
37647;SDS011;23490;53.656;10.076;2022-10-16T01:36:45;8.38;;;1.40;;
37647;SDS011;23490;53.656;10.076;2022-10-16T01:39:16;7.35;;;2.13;;
37647;SDS011;23490;53.656;10.076;2022-10-16T01:41:55;4.32;;;1.60;;
37647;SDS011;23490;53.656;10.076;2022-10-16T01:44:26;3.72;;;1.70;;
37647;SDS011;23490;53.656;10.076;2022-10-16T01:49:22;5.25;;;1.70;;
37647;SDS011;23490;53.656;10.076;2022-10-16T01:51:52;3.25;;;1.60;;
37647;SDS011;23490;53.656;10.076;2022-10-16T01:54:21;4.63;;;1.55;;
37647;SDS011;23490;53.656;10.076;2022-10-16T01:56:51;3.38;;;1.42;;
37647;SDS011;23490;53.656;10.076;2022-10-16T01:59:18;5.40;;;1.58;;
37647;SDS011;23490;53.656;10.076;2022-10-16T02:01:50;6.87;;;1.47;;
37647;SDS011;23490;53.656;10.076;2022-10-16T02:04:34;3.95;;;1.25;;
37647;SDS011;23490;53.656;10.076;2022-10-16T02:07:03;4.40;;;1.58;;
37647;SDS011;23490;53.656;10.076;2022-10-16T02:09:29;5.15;;;1.60;;
37647;SDS011;23490;53.656;10.076;2022-10-16T02:11:57;4.00;;;1.33;;
37647;SDS011;23490;53.656;10.076;2022-10-16T02:14:27;5.25;;;1.98;;
37647;SDS011;23490;53.656;10.076;2022-10-16T02:16:53;3.35;;;1.48;;
37647;SDS011;23490;53.656;10.076;2022-10-16T02:19:19;4.35;;;1.60;;
37647;SDS011;23490;53.656;10.076;2022-10-16T02:21:49;3.95;;;1.45;;
37647;SDS011;23490;53.656;10.076;2022-10-16T02:24:31;3.22;;;1.52;;
37647;SDS011;23490;53.656;10.076;2022-10-16T02:27:09;5.75;;;1.50;;
37647;SDS011;23490;53.656;10.076;2022-10-16T02:29:39;5.18;;;1.52;;
37647;SDS011;23490;53.656;10.076;2022-10-16T02:32:13;4.28;;;1.90;;
37647;SDS011;23490;53.656;10.076;2022-10-16T02:34:41;3.50;;;1.80;;
37647;SDS011;23490;53.656;10.076;2022-10-16T02:37:07;4.95;;;1.55;;
37647;SDS011;23490;53.656;10.076;2022-10-16T02:39:32;4.03;;;1.35;;
37647;SDS011;23490;53.656;10.076;2022-10-16T02:41:59;2.65;;;1.30;;
37647;SDS011;23490;53.656;10.076;2022-10-16T02:44:24;3.72;;;1.63;;
37647;SDS011;23490;53.656;10.076;2022-10-16T02:46:50;4.05;;;1.50;;
37647;SDS011;23490;53.656;10.076;2022-10-16T02:49:15;4.75;;;1.10;;
37647;SDS011;23490;53.656;10.076;2022-10-16T02:51:40;8.13;;;1.55;;
37647;SDS011;23490;53.656;10.076;2022-10-16T02:54:06;4.68;;;1.52;;
37647;SDS011;23490;53.656;10.076;2022-10-16T02:56:31;5.15;;;1.25;;
37647;SDS011;23490;53.656;10.076;2022-10-16T02:58:56;5.00;;;1.33;;
37647;SDS011;23490;53.656;10.076;2022-10-16T03:01:22;3.05;;;1.60;;
37647;SDS011;23490;53.656;10.076;2022-10-16T03:03:48;3.85;;;1.20;;
37647;SDS011;23490;53.656;10.076;2022-10-16T03:06:14;3.42;;;1.40;;
37647;SDS011;23490;53.656;10.076;2022-10-16T03:08:39;4.80;;;1.48;;
37647;SDS011;23490;53.656;10.076;2022-10-16T03:11:04;5.00;;;1.20;;
37647;SDS011;23490;53.656;10.076;2022-10-16T03:13:30;7.63;;;1.58;;
37647;SDS011;23490;53.656;10.076;2022-10-16T03:15:55;3.17;;;1.13;;
37647;SDS011;23490;53.656;10.076;2022-10-16T03:18:20;3.85;;;1.60;;
37647;SDS011;23490;53.656;10.076;2022-10-16T03:20:46;2.63;;;0.93;;
37647;SDS011;23490;53.656;10.076;2022-10-16T03:23:11;3.13;;;1.52;;
37647;SDS011;23490;53.656;10.076;2022-10-16T03:25:36;7.55;;;1.67;;
37647;SDS011;23490;53.656;10.076;2022-10-16T03:28:02;3.88;;;1.52;;
37647;SDS011;23490;53.656;10.076;2022-10-16T03:30:28;4.93;;;1.30;;
37647;SDS011;23490;53.656;10.076;2022-10-16T03:32:53;5.18;;;1.30;;
37647;SDS011;23490;53.656;10.076;2022-10-16T03:35:22;4.43;;;1.50;;
37647;SDS011;23490;53.656;10.076;2022-10-16T03:37:48;2.45;;;1.13;;
37647;SDS011;23490;53.656;10.076;2022-10-16T03:40:14;2.28;;;1.02;;
37647;SDS011;23490;53.656;10.076;2022-10-16T03:42:41;6.13;;;1.30;;
37647;SDS011;23490;53.656;10.076;2022-10-16T03:45:07;4.18;;;1.10;;
37647;SDS011;23490;53.656;10.076;2022-10-16T03:47:33;4.45;;;1.20;;
37647;SDS011;23490;53.656;10.076;2022-10-16T03:49:59;4.72;;;1.55;;
37647;SDS011;23490;53.656;10.076;2022-10-16T03:52:24;4.68;;;1.10;;
37647;SDS011;23490;53.656;10.076;2022-10-16T03:54:50;3.05;;;1.10;;
37647;SDS011;23490;53.656;10.076;2022-10-16T03:57:15;2.58;;;1.00;;
37647;SDS011;23490;53.656;10.076;2022-10-16T03:59:41;3.80;;;1.50;;
37647;SDS011;23490;53.656;10.076;2022-10-16T04:02:06;3.85;;;1.58;;
37647;SDS011;23490;53.656;10.076;2022-10-16T04:04:31;5.05;;;1.30;;
37647;SDS011;23490;53.656;10.076;2022-10-16T04:06:57;6.15;;;1.77;;
37647;SDS011;23490;53.656;10.076;2022-10-16T04:09:22;4.28;;;1.58;;
37647;SDS011;23490;53.656;10.076;2022-10-16T04:11:47;6.35;;;1.40;;
37647;SDS011;23490;53.656;10.076;2022-10-16T04:14:13;2.45;;;1.10;;
37647;SDS011;23490;53.656;10.076;2022-10-16T04:16:38;3.10;;;1.00;;
37647;SDS011;23490;53.656;10.076;2022-10-16T04:19:03;4.25;;;1.35;;
37647;SDS011;23490;53.656;10.076;2022-10-16T04:21:29;2.40;;;1.35;;
37647;SDS011;23490;53.656;10.076;2022-10-16T04:23:54;3.20;;;0.98;;
37647;SDS011;23490;53.656;10.076;2022-10-16T04:26:19;2.67;;;1.05;;
37647;SDS011;23490;53.656;10.076;2022-10-16T04:28:45;4.53;;;1.45;;
37647;SDS011;23490;53.656;10.076;2022-10-16T04:31:10;2.42;;;0.80;;
37647;SDS011;23490;53.656;10.076;2022-10-16T04:33:35;2.20;;;1.20;;
37647;SDS011;23490;53.656;10.076;2022-10-16T04:36:01;4.80;;;1.35;;
37647;SDS011;23490;53.656;10.076;2022-10-16T04:38:27;6.78;;;1.52;;
37647;SDS011;23490;53.656;10.076;2022-10-16T04:40:53;4.10;;;1.10;;
37647;SDS011;23490;53.656;10.076;2022-10-16T04:43:18;3.83;;;1.17;;
37647;SDS011;23490;53.656;10.076;2022-10-16T04:45:43;3.63;;;1.25;;
37647;SDS011;23490;53.656;10.076;2022-10-16T04:48:09;3.17;;;1.00;;
37647;SDS011;23490;53.656;10.076;2022-10-16T04:50:34;3.90;;;1.48;;
37647;SDS011;23490;53.656;10.076;2022-10-16T04:53:00;4.53;;;1.08;;
37647;SDS011;23490;53.656;10.076;2022-10-16T04:55:25;3.55;;;1.20;;
37647;SDS011;23490;53.656;10.076;2022-10-16T04:57:50;3.65;;;1.08;;
37647;SDS011;23490;53.656;10.076;2022-10-16T05:00:16;4.00;;;1.33;;
37647;SDS011;23490;53.656;10.076;2022-10-16T05:02:41;2.40;;;1.20;;
37647;SDS011;23490;53.656;10.076;2022-10-16T05:05:06;4.55;;;1.42;;
37647;SDS011;23490;53.656;10.076;2022-10-16T05:07:32;6.57;;;1.38;;
37647;SDS011;23490;53.656;10.076;2022-10-16T05:09:57;7.65;;;1.30;;
37647;SDS011;23490;53.656;10.076;2022-10-16T05:12:23;6.38;;;1.70;;
37647;SDS011;23490;53.656;10.076;2022-10-16T05:14:48;3.45;;;1.30;;
37647;SDS011;23490;53.656;10.076;2022-10-16T05:17:13;4.63;;;1.33;;
37647;SDS011;23490;53.656;10.076;2022-10-16T05:19:39;2.72;;;1.40;;
37647;SDS011;23490;53.656;10.076;2022-10-16T05:22:04;6.38;;;1.88;;
37647;SDS011;23490;53.656;10.076;2022-10-16T05:24:30;4.85;;;1.40;;
37647;SDS011;23490;53.656;10.076;2022-10-16T05:26:55;3.70;;;1.20;;
37647;SDS011;23490;53.656;10.076;2022-10-16T05:29:21;3.20;;;1.25;;
37647;SDS011;23490;53.656;10.076;2022-10-16T05:31:49;6.30;;;2.10;;
37647;SDS011;23490;53.656;10.076;2022-10-16T05:34:15;3.45;;;1.60;;
37647;SDS011;23490;53.656;10.076;2022-10-16T05:36:41;5.82;;;1.52;;
37647;SDS011;23490;53.656;10.076;2022-10-16T05:39:06;3.03;;;1.52;;
37647;SDS011;23490;53.656;10.076;2022-10-16T05:41:31;4.32;;;1.50;;
37647;SDS011;23490;53.656;10.076;2022-10-16T05:43:57;7.75;;;1.92;;
37647;SDS011;23490;53.656;10.076;2022-10-16T05:46:22;5.45;;;1.70;;
37647;SDS011;23490;53.656;10.076;2022-10-16T05:48:47;4.43;;;1.42;;
37647;SDS011;23490;53.656;10.076;2022-10-16T05:51:13;3.60;;;1.40;;
37647;SDS011;23490;53.656;10.076;2022-10-16T05:53:39;7.80;;;2.10;;
37647;SDS011;23490;53.656;10.076;2022-10-16T05:56:06;4.65;;;1.70;;
37647;SDS011;23490;53.656;10.076;2022-10-16T05:58:35;3.80;;;1.30;;
37647;SDS011;23490;53.656;10.076;2022-10-16T06:01:03;2.53;;;1.52;;
37647;SDS011;23490;53.656;10.076;2022-10-16T06:03:31;6.03;;;1.70;;
37647;SDS011;23490;53.656;10.076;2022-10-16T06:05:57;4.10;;;1.58;;
37647;SDS011;23490;53.656;10.076;2022-10-16T06:08:22;5.07;;;1.73;;
37647;SDS011;23490;53.656;10.076;2022-10-16T06:10:49;7.25;;;1.90;;
37647;SDS011;23490;53.656;10.076;2022-10-16T06:13:24;4.55;;;1.80;;
37647;SDS011;23490;53.656;10.076;2022-10-16T06:15:50;3.35;;;1.70;;
37647;SDS011;23490;53.656;10.076;2022-10-16T06:18:15;3.38;;;1.38;;
37647;SDS011;23490;53.656;10.076;2022-10-16T06:20:40;5.85;;;1.90;;
37647;SDS011;23490;53.656;10.076;2022-10-16T06:23:06;2.88;;;1.35;;
37647;SDS011;23490;53.656;10.076;2022-10-16T06:25:31;4.88;;;1.40;;
37647;SDS011;23490;53.656;10.076;2022-10-16T06:27:57;2.88;;;1.52;;
37647;SDS011;23490;53.656;10.076;2022-10-16T06:30:22;3.92;;;1.50;;
37647;SDS011;23490;53.656;10.076;2022-10-16T06:32:47;3.88;;;1.65;;
37647;SDS011;23490;53.656;10.076;2022-10-16T06:35:13;2.60;;;1.55;;
37647;SDS011;23490;53.656;10.076;2022-10-16T06:37:38;4.30;;;2.13;;
37647;SDS011;23490;53.656;10.076;2022-10-16T06:40:04;4.53;;;1.83;;
37647;SDS011;23490;53.656;10.076;2022-10-16T06:42:30;6.60;;;1.50;;
37647;SDS011;23490;53.656;10.076;2022-10-16T06:44:55;9.65;;;1.88;;
37647;SDS011;23490;53.656;10.076;2022-10-16T06:47:21;4.13;;;2.22;;
37647;SDS011;23490;53.656;10.076;2022-10-16T06:49:46;4.32;;;1.58;;
37647;SDS011;23490;53.656;10.076;2022-10-16T06:52:11;3.88;;;1.38;;
37647;SDS011;23490;53.656;10.076;2022-10-16T06:54:37;4.28;;;1.58;;
37647;SDS011;23490;53.656;10.076;2022-10-16T06:57:02;5.18;;;1.88;;
37647;SDS011;23490;53.656;10.076;2022-10-16T06:59:27;5.40;;;1.60;;
37647;SDS011;23490;53.656;10.076;2022-10-16T07:01:53;8.80;;;2.10;;
37647;SDS011;23490;53.656;10.076;2022-10-16T07:04:18;5.00;;;1.70;;
37647;SDS011;23490;53.656;10.076;2022-10-16T07:06:44;3.90;;;1.40;;
37647;SDS011;23490;53.656;10.076;2022-10-16T07:09:09;5.35;;;1.67;;
37647;SDS011;23490;53.656;10.076;2022-10-16T07:11:36;5.55;;;1.80;;
37647;SDS011;23490;53.656;10.076;2022-10-16T07:14:03;3.35;;;1.65;;
37647;SDS011;23490;53.656;10.076;2022-10-16T07:16:30;6.68;;;2.05;;
37647;SDS011;23490;53.656;10.076;2022-10-16T07:18:57;3.80;;;1.85;;
37647;SDS011;23490;53.656;10.076;2022-10-16T07:21:25;4.43;;;1.42;;
37647;SDS011;23490;53.656;10.076;2022-10-16T07:23:54;4.50;;;1.70;;
37647;SDS011;23490;53.656;10.076;2022-10-16T07:26:22;5.82;;;2.00;;
37647;SDS011;23490;53.656;10.076;2022-10-16T07:28:48;5.22;;;1.75;;
37647;SDS011;23490;53.656;10.076;2022-10-16T07:31:14;6.53;;;2.42;;
37647;SDS011;23490;53.656;10.076;2022-10-16T07:33:41;6.00;;;1.98;;
37647;SDS011;23490;53.656;10.076;2022-10-16T07:36:09;5.78;;;1.70;;
37647;SDS011;23490;53.656;10.076;2022-10-16T07:38:35;4.47;;;2.08;;
37647;SDS011;23490;53.656;10.076;2022-10-16T07:41:01;3.60;;;1.60;;
37647;SDS011;23490;53.656;10.076;2022-10-16T07:43:28;3.10;;;1.60;;
37647;SDS011;23490;53.656;10.076;2022-10-16T07:45:54;2.97;;;1.48;;
37647;SDS011;23490;53.656;10.076;2022-10-16T07:48:20;3.15;;;1.70;;
37647;SDS011;23490;53.656;10.076;2022-10-16T07:50:46;5.88;;;1.60;;
37647;SDS011;23490;53.656;10.076;2022-10-16T07:53:11;4.90;;;1.73;;
37647;SDS011;23490;53.656;10.076;2022-10-16T07:55:37;4.82;;;1.92;;
37647;SDS011;23490;53.656;10.076;2022-10-16T07:58:02;3.03;;;1.60;;
37647;SDS011;23490;53.656;10.076;2022-10-16T08:00:28;5.00;;;1.98;;
37647;SDS011;23490;53.656;10.076;2022-10-16T08:02:53;3.92;;;1.63;;
37647;SDS011;23490;53.656;10.076;2022-10-16T08:05:19;4.00;;;1.60;;
37647;SDS011;23490;53.656;10.076;2022-10-16T08:07:48;3.30;;;1.70;;
37647;SDS011;23490;53.656;10.076;2022-10-16T08:10:17;3.97;;;2.08;;
37647;SDS011;23490;53.656;10.076;2022-10-16T08:12:44;5.38;;;1.95;;
37647;SDS011;23490;53.656;10.076;2022-10-16T08:15:09;4.35;;;1.75;;
37647;SDS011;23490;53.656;10.076;2022-10-16T08:17:35;4.03;;;1.80;;
37647;SDS011;23490;53.656;10.076;2022-10-16T08:20:00;6.07;;;1.80;;
37647;SDS011;23490;53.656;10.076;2022-10-16T08:22:26;4.38;;;1.58;;
37647;SDS011;23490;53.656;10.076;2022-10-16T08:24:51;3.75;;;2.05;;
37647;SDS011;23490;53.656;10.076;2022-10-16T08:27:17;3.33;;;1.70;;
37647;SDS011;23490;53.656;10.076;2022-10-16T08:29:42;3.83;;;1.90;;
37647;SDS011;23490;53.656;10.076;2022-10-16T08:32:07;4.65;;;1.95;;
37647;SDS011;23490;53.656;10.076;2022-10-16T08:34:33;4.22;;;1.90;;
37647;SDS011;23490;53.656;10.076;2022-10-16T08:36:58;5.95;;;1.80;;
37647;SDS011;23490;53.656;10.076;2022-10-16T08:39:23;4.78;;;1.73;;
37647;SDS011;23490;53.656;10.076;2022-10-16T08:44:57;4.78;;;1.95;;
37647;SDS011;23490;53.656;10.076;2022-10-16T08:50:35;3.78;;;1.85;;
37647;SDS011;23490;53.656;10.076;2022-10-16T08:53:03;5.22;;;2.00;;
37647;SDS011;23490;53.656;10.076;2022-10-16T08:55:31;4.60;;;2.20;;
37647;SDS011;23490;53.656;10.076;2022-10-16T08:58:11;3.35;;;1.60;;
37647;SDS011;23490;53.656;10.076;2022-10-16T09:00:47;5.25;;;2.08;;
37647;SDS011;23490;53.656;10.076;2022-10-16T09:06:26;2.90;;;1.67;;
37647;SDS011;23490;53.656;10.076;2022-10-16T09:17:12;3.03;;;1.38;;
37647;SDS011;23490;53.656;10.076;2022-10-16T09:19:43;5.30;;;1.80;;
37647;SDS011;23490;53.656;10.076;2022-10-16T09:22:15;10.25;;;4.75;;
37647;SDS011;23490;53.656;10.076;2022-10-16T09:24:41;4.88;;;1.58;;
37647;SDS011;23490;53.656;10.076;2022-10-16T09:27:11;4.03;;;1.50;;
37647;SDS011;23490;53.656;10.076;2022-10-16T09:29:37;7.20;;;1.75;;
37647;SDS011;23490;53.656;10.076;2022-10-16T09:32:13;4.65;;;1.17;;
37647;SDS011;23490;53.656;10.076;2022-10-16T09:37:21;5.85;;;1.48;;
37647;SDS011;23490;53.656;10.076;2022-10-16T09:39:49;2.42;;;1.10;;
37647;SDS011;23490;53.656;10.076;2022-10-16T09:42:17;5.78;;;1.50;;
37647;SDS011;23490;53.656;10.076;2022-10-16T09:44:53;4.95;;;1.40;;
37647;SDS011;23490;53.656;10.076;2022-10-16T09:47:25;3.75;;;1.42;;
37647;SDS011;23490;53.656;10.076;2022-10-16T09:52:19;5.95;;;1.33;;
37647;SDS011;23490;53.656;10.076;2022-10-16T09:57:19;3.38;;;1.10;;
37647;SDS011;23490;53.656;10.076;2022-10-16T09:59:52;4.70;;;1.30;;
37647;SDS011;23490;53.656;10.076;2022-10-16T10:02:19;3.78;;;1.13;;
37647;SDS011;23490;53.656;10.076;2022-10-16T10:04:52;3.80;;;1.00;;
37647;SDS011;23490;53.656;10.076;2022-10-16T10:07:25;4.43;;;1.15;;
37647;SDS011;23490;53.656;10.076;2022-10-16T10:09:53;3.15;;;0.90;;
37647;SDS011;23490;53.656;10.076;2022-10-16T10:12:28;2.97;;;0.80;;
37647;SDS011;23490;53.656;10.076;2022-10-16T10:14:57;3.15;;;1.35;;
37647;SDS011;23490;53.656;10.076;2022-10-16T10:17:28;4.93;;;1.02;;
37647;SDS011;23490;53.656;10.076;2022-10-16T10:19:54;1.75;;;0.73;;
37647;SDS011;23490;53.656;10.076;2022-10-16T10:35:44;4.85;;;1.77;;
37647;SDS011;23490;53.656;10.076;2022-10-16T10:38:30;6.53;;;1.20;;
37647;SDS011;23490;53.656;10.076;2022-10-16T10:41:16;3.58;;;1.00;;
37647;SDS011;23490;53.656;10.076;2022-10-16T10:44:01;4.15;;;1.10;;
37647;SDS011;23490;53.656;10.076;2022-10-16T10:46:36;3.05;;;1.10;;
37647;SDS011;23490;53.656;10.076;2022-10-16T11:01:09;1.52;;;0.80;;
37647;SDS011;23490;53.656;10.076;2022-10-16T11:06:31;4.00;;;1.27;;
37647;SDS011;23490;53.656;10.076;2022-10-16T11:11:42;6.38;;;1.05;;
37647;SDS011;23490;53.656;10.076;2022-10-16T11:14:16;3.45;;;1.00;;
37647;SDS011;23490;53.656;10.076;2022-10-16T11:16:58;4.25;;;0.80;;
37647;SDS011;23490;53.656;10.076;2022-10-16T11:19:35;3.97;;;1.00;;
37647;SDS011;23490;53.656;10.076;2022-10-16T11:22:15;3.92;;;1.05;;
37647;SDS011;23490;53.656;10.076;2022-10-16T11:24:45;2.50;;;0.60;;
37647;SDS011;23490;53.656;10.076;2022-10-16T11:27:24;3.55;;;0.90;;
37647;SDS011;23490;53.656;10.076;2022-10-16T11:29:58;3.78;;;0.90;;
37647;SDS011;23490;53.656;10.076;2022-10-16T11:32:34;2.40;;;1.10;;
37647;SDS011;23490;53.656;10.076;2022-10-16T11:35:11;3.75;;;1.20;;
37647;SDS011;23490;53.656;10.076;2022-10-16T11:37:45;4.32;;;1.05;;
37647;SDS011;23490;53.656;10.076;2022-10-16T11:40:19;1.83;;;0.70;;
37647;SDS011;23490;53.656;10.076;2022-10-16T11:42:50;3.58;;;0.60;;
37647;SDS011;23490;53.656;10.076;2022-10-16T11:45:26;2.78;;;1.05;;
37647;SDS011;23490;53.656;10.076;2022-10-16T11:48:02;5.03;;;1.35;;
37647;SDS011;23490;53.656;10.076;2022-10-16T11:56:12;2.83;;;0.88;;
37647;SDS011;23490;53.656;10.076;2022-10-16T11:59:02;6.57;;;1.00;;
37647;SDS011;23490;53.656;10.076;2022-10-16T12:04:14;2.95;;;1.00;;
37647;SDS011;23490;53.656;10.076;2022-10-16T12:09:27;6.18;;;1.00;;
37647;SDS011;23490;53.656;10.076;2022-10-16T12:11:54;4.45;;;1.10;;
37647;SDS011;23490;53.656;10.076;2022-10-16T12:14:22;4.78;;;1.10;;
37647;SDS011;23490;53.656;10.076;2022-10-16T12:17:01;4.45;;;0.98;;
37647;SDS011;23490;53.656;10.076;2022-10-16T12:19:31;3.72;;;0.93;;
37647;SDS011;23490;53.656;10.076;2022-10-16T12:21:58;5.80;;;0.93;;
37647;SDS011;23490;53.656;10.076;2022-10-16T12:24:38;3.58;;;1.05;;
37647;SDS011;23490;53.656;10.076;2022-10-16T12:27:19;3.05;;;0.80;;
37647;SDS011;23490;53.656;10.076;2022-10-16T12:29:59;2.90;;;0.80;;
37647;SDS011;23490;53.656;10.076;2022-10-16T12:35:02;2.45;;;0.93;;
37647;SDS011;23490;53.656;10.076;2022-10-16T12:37:33;2.83;;;1.08;;
37647;SDS011;23490;53.656;10.076;2022-10-16T12:40:11;5.68;;;1.15;;
37647;SDS011;23490;53.656;10.076;2022-10-16T12:42:38;5.57;;;1.15;;
37647;SDS011;23490;53.656;10.076;2022-10-16T12:47:50;6.20;;;1.13;;
37647;SDS011;23490;53.656;10.076;2022-10-16T12:50:36;3.53;;;0.80;;
37647;SDS011;23490;53.656;10.076;2022-10-16T12:53:04;3.53;;;1.02;;
37647;SDS011;23490;53.656;10.076;2022-10-16T12:55:50;6.50;;;0.80;;
37647;SDS011;23490;53.656;10.076;2022-10-16T12:58:33;3.90;;;1.40;;
37647;SDS011;23490;53.656;10.076;2022-10-16T13:04:01;3.53;;;1.15;;
37647;SDS011;23490;53.656;10.076;2022-10-16T13:09:29;3.10;;;0.80;;
37647;SDS011;23490;53.656;10.076;2022-10-16T13:25:30;6.40;;;1.58;;
37647;SDS011;23490;53.656;10.076;2022-10-16T13:28:08;4.45;;;1.10;;
37647;SDS011;23490;53.656;10.076;2022-10-16T13:33:10;3.50;;;1.05;;
37647;SDS011;23490;53.656;10.076;2022-10-16T13:35:48;5.68;;;1.40;;
37647;SDS011;23490;53.656;10.076;2022-10-16T13:38:19;3.70;;;1.00;;
37647;SDS011;23490;53.656;10.076;2022-10-16T13:40:52;5.32;;;1.17;;
37647;SDS011;23490;53.656;10.076;2022-10-16T13:45:52;5.15;;;1.13;;
37647;SDS011;23490;53.656;10.076;2022-10-16T13:48:21;5.70;;;1.13;;
37647;SDS011;23490;53.656;10.076;2022-10-16T13:50:57;4.40;;;0.80;;
37647;SDS011;23490;53.656;10.076;2022-10-16T13:53:24;3.28;;;0.85;;
37647;SDS011;23490;53.656;10.076;2022-10-16T13:55:49;5.05;;;1.30;;
37647;SDS011;23490;53.656;10.076;2022-10-16T13:58:14;4.38;;;0.80;;
37647;SDS011;23490;53.656;10.076;2022-10-16T14:00:42;2.83;;;0.70;;
37647;SDS011;23490;53.656;10.076;2022-10-16T14:03:22;2.08;;;0.60;;
37647;SDS011;23490;53.656;10.076;2022-10-16T14:08:15;2.65;;;0.80;;
37647;SDS011;23490;53.656;10.076;2022-10-16T14:10:41;4.57;;;0.90;;
37647;SDS011;23490;53.656;10.076;2022-10-16T14:13:06;4.43;;;0.95;;
37647;SDS011;23490;53.656;10.076;2022-10-16T14:15:37;5.95;;;0.90;;
37647;SDS011;23490;53.656;10.076;2022-10-16T14:18:03;6.97;;;0.88;;
37647;SDS011;23490;53.656;10.076;2022-10-16T14:20:29;9.30;;;1.48;;
37647;SDS011;23490;53.656;10.076;2022-10-16T14:23:01;6.78;;;1.60;;
37647;SDS011;23490;53.656;10.076;2022-10-16T14:25:44;4.10;;;0.80;;
37647;SDS011;23490;53.656;10.076;2022-10-16T14:30:48;3.25;;;0.90;;
37647;SDS011;23490;53.656;10.076;2022-10-16T14:33:23;2.45;;;0.90;;
37647;SDS011;23490;53.656;10.076;2022-10-16T14:36:00;3.70;;;1.13;;
37647;SDS011;23490;53.656;10.076;2022-10-16T14:38:31;7.70;;;1.30;;
37647;SDS011;23490;53.656;10.076;2022-10-16T14:40:58;5.90;;;0.68;;
37647;SDS011;23490;53.656;10.076;2022-10-16T14:43:27;3.28;;;1.05;;
37647;SDS011;23490;53.656;10.076;2022-10-16T14:45:55;2.65;;;0.65;;
37647;SDS011;23490;53.656;10.076;2022-10-16T14:48:22;5.57;;;0.93;;
37647;SDS011;23490;53.656;10.076;2022-10-16T14:50:48;3.92;;;0.73;;
37647;SDS011;23490;53.656;10.076;2022-10-16T14:53:14;2.80;;;0.65;;
37647;SDS011;23490;53.656;10.076;2022-10-16T14:55:40;4.45;;;1.40;;
37647;SDS011;23490;53.656;10.076;2022-10-16T14:58:14;5.28;;;1.20;;
37647;SDS011;23490;53.656;10.076;2022-10-16T15:00:41;3.85;;;0.98;;
37647;SDS011;23490;53.656;10.076;2022-10-16T15:03:06;3.65;;;0.73;;
37647;SDS011;23490;53.656;10.076;2022-10-16T15:05:32;3.47;;;1.08;;
37647;SDS011;23490;53.656;10.076;2022-10-16T15:07:57;6.10;;;1.70;;
37647;SDS011;23490;53.656;10.076;2022-10-16T15:10:23;3.97;;;0.82;;
37647;SDS011;23490;53.656;10.076;2022-10-16T15:12:52;2.40;;;0.70;;
37647;SDS011;23490;53.656;10.076;2022-10-16T15:17:57;4.18;;;0.88;;
37647;SDS011;23490;53.656;10.076;2022-10-16T15:20:28;6.22;;;1.10;;
37647;SDS011;23490;53.656;10.076;2022-10-16T15:22:58;4.82;;;1.20;;
37647;SDS011;23490;53.656;10.076;2022-10-16T15:25:44;5.22;;;1.08;;
37647;SDS011;23490;53.656;10.076;2022-10-16T15:28:17;3.60;;;1.17;;
37647;SDS011;23490;53.656;10.076;2022-10-16T15:30:43;4.60;;;1.00;;
37647;SDS011;23490;53.656;10.076;2022-10-16T15:33:13;3.67;;;1.00;;
37647;SDS011;23490;53.656;10.076;2022-10-16T15:35:42;7.35;;;1.08;;
37647;SDS011;23490;53.656;10.076;2022-10-16T15:38:11;5.70;;;1.05;;
37647;SDS011;23490;53.656;10.076;2022-10-16T15:40:37;4.38;;;1.17;;
37647;SDS011;23490;53.656;10.076;2022-10-16T15:43:03;4.45;;;1.30;;
37647;SDS011;23490;53.656;10.076;2022-10-16T15:45:28;2.85;;;0.98;;
37647;SDS011;23490;53.656;10.076;2022-10-16T15:47:53;4.80;;;0.90;;
37647;SDS011;23490;53.656;10.076;2022-10-16T15:50:19;7.13;;;1.63;;
37647;SDS011;23490;53.656;10.076;2022-10-16T15:52:44;4.63;;;1.15;;
37647;SDS011;23490;53.656;10.076;2022-10-16T15:55:11;6.47;;;1.38;;
37647;SDS011;23490;53.656;10.076;2022-10-16T15:57:38;4.65;;;1.35;;
37647;SDS011;23490;53.656;10.076;2022-10-16T16:00:10;6.18;;;1.42;;
37647;SDS011;23490;53.656;10.076;2022-10-16T16:02:38;2.65;;;1.00;;
37647;SDS011;23490;53.656;10.076;2022-10-16T16:05:06;5.65;;;1.65;;
37647;SDS011;23490;53.656;10.076;2022-10-16T16:07:33;7.15;;;1.35;;
37647;SDS011;23490;53.656;10.076;2022-10-16T16:10:03;4.32;;;1.40;;
37647;SDS011;23490;53.656;10.076;2022-10-16T16:12:31;4.82;;;1.40;;
37647;SDS011;23490;53.656;10.076;2022-10-16T16:14:57;7.68;;;1.63;;
37647;SDS011;23490;53.656;10.076;2022-10-16T16:17:22;8.02;;;1.30;;
37647;SDS011;23490;53.656;10.076;2022-10-16T16:19:48;6.22;;;1.40;;
37647;SDS011;23490;53.656;10.076;2022-10-16T16:22:14;3.88;;;1.40;;
37647;SDS011;23490;53.656;10.076;2022-10-16T16:24:39;8.77;;;1.38;;
37647;SDS011;23490;53.656;10.076;2022-10-16T16:27:04;5.63;;;1.42;;
37647;SDS011;23490;53.656;10.076;2022-10-16T16:29:30;4.03;;;1.00;;
37647;SDS011;23490;53.656;10.076;2022-10-16T16:31:55;4.82;;;1.80;;
37647;SDS011;23490;53.656;10.076;2022-10-16T16:34:25;4.25;;;1.35;;
37647;SDS011;23490;53.656;10.076;2022-10-16T16:36:52;5.45;;;1.58;;